Time;durP1;ratioP1;P1;durP2;ratioP2;P2;SDS_P1;SDS_P2;PMS_P1;PMS_P2;Temp;Humidity;BMP_temperature;BMP_pressure;BME280_temperature;BME280_humidity;BME280_pressure;Samples;Min_cycle;Max_cycle;Signal;HPM_P1;HPM_P2
2022/11/06 06:00:52;;;;;;;26.77;16.83;;;;;;;;;;6006629;23;21453;-90
2022/11/06 06:03:20;;;;;;;25.00;15.70;;;;;;;;;;5005620;28;20444;-84
2022/11/06 06:05:46;;;;;;;23.08;14.93;;;;;;;;;;5025443;28;20395;-83
2022/11/06 06:08:12;;;;;;;26.83;15.27;;;;;;;;;;5028505;28;20421;-84
2022/11/06 06:10:41;;;;;;;24.02;14.88;;;;;;;;;;5021443;28;20387;-83
2022/11/06 06:13:07;;;;;;;20.23;14.52;;;;;;;;;;5044420;28;20421;-83
2022/11/06 06:15:34;;;;;;;20.48;13.90;;;;;;;;;;5040136;28;20402;-83
2022/11/06 06:18:00;;;;;;;18.75;14.02;;;;;;;;;;5031945;28;20477;-83
2022/11/06 06:20:26;;;;;;;21.00;15.02;;;;;;;;;;5029073;28;20462;-83
2022/11/06 06:22:52;;;;;;;21.58;14.27;;;;;;;;;;5040923;28;20423;-83
2022/11/06 06:25:18;;;;;;;21.13;14.90;;;;;;;;;;5034978;28;20478;-83
2022/11/06 06:27:44;;;;;;;18.80;13.77;;;;;;;;;;5031153;28;20426;-83
2022/11/06 06:30:11;;;;;;;16.70;13.55;;;;;;;;;;5033983;28;20446;-83
2022/11/06 06:32:37;;;;;;;15.87;13.07;;;;;;;;;;5010616;28;20494;-83
2022/11/06 06:35:03;;;;;;;14.38;12.80;;;;;;;;;;5046569;28;20395;-83
2022/11/06 06:37:29;;;;;;;15.95;12.95;;;;;;;;;;5032862;28;20390;-83
2022/11/06 06:39:55;;;;;;;15.20;13.05;;;;;;;;;;5032940;28;20375;-83
2022/11/06 06:42:21;;;;;;;15.75;12.60;;;;;;;;;;5032488;28;20432;-85
2022/11/06 06:44:47;;;;;;;15.57;12.20;;;;;;;;;;5038102;28;20459;-84
2022/11/06 06:47:15;;;;;;;14.30;12.23;;;;;;;;;;5032539;28;20403;-84
2022/11/06 06:49:42;;;;;;;13.52;12.02;;;;;;;;;;5032419;28;20390;-84
2022/11/06 06:52:08;;;;;;;13.82;12.05;;;;;;;;;;5031912;28;20379;-84
2022/11/06 06:54:34;;;;;;;14.25;12.60;;;;;;;;;;5032287;28;20844;-84
2022/11/06 06:57:00;;;;;;;15.05;12.50;;;;;;;;;;5046247;28;20390;-84
2022/11/06 06:59:29;;;;;;;13.60;12.20;;;;;;;;;;5037332;28;20805;-84
2022/11/06 07:01:56;;;;;;;14.80;12.60;;;;;;;;;;5046905;28;20425;-84
2022/11/06 07:04:22;;;;;;;14.23;12.05;;;;;;;;;;5046824;28;20416;-84
2022/11/06 07:06:48;;;;;;;15.73;13.15;;;;;;;;;;5048397;28;20381;-84
2022/11/06 07:09:14;;;;;;;13.68;12.18;;;;;;;;;;5042084;28;20390;-85
2022/11/06 07:11:40;;;;;;;14.90;12.80;;;;;;;;;;5047495;28;20424;-84
2022/11/06 07:14:06;;;;;;;15.38;12.82;;;;;;;;;;5046210;28;20413;-84
2022/11/06 07:16:32;;;;;;;16.33;12.88;;;;;;;;;;5048338;28;20455;-84
2022/11/06 07:18:58;;;;;;;13.48;12.07;;;;;;;;;;5047697;28;20389;-84
2022/11/06 07:21:24;;;;;;;13.53;12.10;;;;;;;;;;5045545;28;20435;-84
2022/11/06 07:23:50;;;;;;;14.32;12.57;;;;;;;;;;5048494;28;20374;-84
2022/11/06 07:26:17;;;;;;;14.35;12.70;;;;;;;;;;5047395;28;20804;-84
2022/11/06 07:28:43;;;;;;;14.52;12.75;;;;;;;;;;5049105;28;20447;-83
2022/11/06 07:31:11;;;;;;;15.48;13.50;;;;;;;;;;5045026;28;20393;-84
2022/11/06 07:33:37;;;;;;;15.02;12.63;;;;;;;;;;5047047;28;20409;-84
2022/11/06 07:36:04;;;;;;;13.80;12.32;;;;;;;;;;5046037;28;20393;-84
2022/11/06 07:38:33;;;;;;;13.02;11.63;;;;;;;;;;5041906;28;20398;-84
2022/11/06 07:41:06;;;;;;;14.30;12.15;;;;;;;;;;5019035;28;20442;-84
2022/11/06 07:43:32;;;;;;;13.10;11.80;;;;;;;;;;5041646;28;21176;-84
2022/11/06 07:46:00;;;;;;;13.07;11.73;;;;;;;;;;5044253;28;20389;-84
2022/11/06 07:48:26;;;;;;;13.10;11.70;;;;;;;;;;5042499;28;20770;-84
2022/11/06 07:50:52;;;;;;;12.50;11.30;;;;;;;;;;5051233;28;20456;-84
2022/11/06 07:53:18;;;;;;;12.52;11.25;;;;;;;;;;5050704;28;20400;-84
2022/11/06 07:55:50;;;;;;;12.98;11.57;;;;;;;;;;5047361;28;20867;-83
2022/11/06 07:58:17;;;;;;;11.93;10.80;;;;;;;;;;5037751;28;20386;-84
2022/11/06 08:00:46;;;;;;;11.60;10.52;;;;;;;;;;5038875;28;20536;-84
2022/11/06 08:03:12;;;;;;;23.60;19.58;;;;;;;;;;5043327;28;20760;-84
2022/11/06 08:05:38;;;;;;;17.25;15.50;;;;;;;;;;5035242;28;20871;-84
2022/11/06 08:08:04;;;;;;;13.43;12.18;;;;;;;;;;5037162;28;20521;-84
2022/11/06 08:10:30;;;;;;;10.70;9.70;;;;;;;;;;5037460;28;20757;-85
2022/11/06 08:12:58;;;;;;;9.93;9.13;;;;;;;;;;5039155;28;20383;-85
2022/11/06 08:15:24;;;;;;;11.73;10.63;;;;;;;;;;5052906;28;20438;-83
2022/11/06 08:17:50;;;;;;;12.93;11.70;;;;;;;;;;5037555;28;20481;-84
2022/11/06 08:20:16;;;;;;;15.13;13.52;;;;;;;;;;5049465;28;20393;-85
2022/11/06 08:22:42;;;;;;;20.57;15.83;;;;;;;;;;5043053;28;20482;-83
2022/11/06 08:25:08;;;;;;;22.23;16.30;;;;;;;;;;5030205;28;20477;-83
2022/11/06 08:27:34;;;;;;;20.42;16.15;;;;;;;;;;5050110;28;20381;-84
2022/11/06 08:30:00;;;;;;;25.77;17.67;;;;;;;;;;5038302;28;20892;-83
2022/11/06 08:32:27;;;;;;;22.33;17.05;;;;;;;;;;5038013;28;20379;-83
2022/11/06 08:34:53;;;;;;;22.42;17.25;;;;;;;;;;5038506;28;20387;-83
2022/11/06 08:37:20;;;;;;;22.45;16.60;;;;;;;;;;5047220;28;20393;-82
2022/11/06 08:39:46;;;;;;;17.25;14.38;;;;;;;;;;5040856;28;20935;-83
2022/11/06 08:42:12;;;;;;;14.13;12.65;;;;;;;;;;5044502;28;20491;-83
2022/11/06 08:44:41;;;;;;;14.20;12.70;;;;;;;;;;5042820;28;20379;-83
2022/11/06 08:47:07;;;;;;;14.50;13.02;;;;;;;;;;5036893;28;20445;-82
2022/11/06 08:49:33;;;;;;;13.60;12.40;;;;;;;;;;5037888;28;20417;-81
2022/11/06 08:51:59;;;;;;;13.80;12.48;;;;;;;;;;5038034;28;20391;-81
2022/11/06 08:54:25;;;;;;;13.15;11.95;;;;;;;;;;5038058;28;20387;-82
2022/11/06 08:56:51;;;;;;;12.27;11.27;;;;;;;;;;5036664;28;20418;-81
2022/11/06 08:59:17;;;;;;;11.70;10.73;;;;;;;;;;5038129;28;20383;-81
2022/11/06 09:01:43;;;;;;;12.55;11.50;;;;;;;;;;5034065;28;20759;-81
2022/11/06 09:04:09;;;;;;;11.98;10.98;;;;;;;;;;5035078;28;20423;-82
2022/11/06 09:06:35;;;;;;;10.15;9.35;;;;;;;;;;5035065;28;20380;-83
2022/11/06 09:09:01;;;;;;;9.52;8.80;;;;;;;;;;5034648;28;20383;-83
2022/11/06 09:11:27;;;;;;;11.55;10.55;;;;;;;;;;5035255;28;20383;-83
2022/11/06 09:13:53;;;;;;;10.80;9.90;;;;;;;;;;5034878;28;20375;-86
2022/11/06 09:16:19;;;;;;;10.30;9.50;;;;;;;;;;5033937;28;20387;-83
2022/11/06 09:18:45;;;;;;;10.18;9.18;;;;;;;;;;5034038;28;20376;-83
2022/11/06 09:21:11;;;;;;;9.63;8.82;;;;;;;;;;5033444;28;20387;-83
2022/11/06 09:23:37;;;;;;;10.10;9.30;;;;;;;;;;5034390;28;20415;-83
2022/11/06 09:26:03;;;;;;;10.50;9.70;;;;;;;;;;5034474;28;20383;-83
2022/11/06 09:28:29;;;;;;;10.48;9.48;;;;;;;;;;5034678;28;20414;-83
2022/11/06 09:30:55;;;;;;;10.15;9.35;;;;;;;;;;5034446;28;20403;-83
2022/11/06 09:33:21;;;;;;;10.60;9.70;;;;;;;;;;5035792;28;20847;-83
2022/11/06 09:35:47;;;;;;;10.27;9.48;;;;;;;;;;5032986;28;20390;-84
2022/11/06 09:38:14;;;;;;;9.80;9.00;;;;;;;;;;5017181;28;20467;-84
2022/11/06 09:40:40;;;;;;;9.45;8.65;;;;;;;;;;5034122;28;20395;-84
2022/11/06 09:43:21;;;;;;;9.88;9.15;;;;;;;;;;5042265;28;20416;-83
2022/11/06 09:45:49;;;;;;;9.95;8.95;;;;;;;;;;5023039;28;20379;-84
2022/11/06 09:48:36;;;;;;;10.70;9.80;;;;;;;;;;5032957;28;20441;-84
2022/11/06 09:51:06;;;;;;;10.60;9.70;;;;;;;;;;5040600;28;20921;-83
2022/11/06 09:53:32;;;;;;;9.93;9.13;;;;;;;;;;5047168;28;20881;-85
2022/11/06 09:56:00;;;;;;;9.70;8.90;;;;;;;;;;5032523;28;20472;-84
2022/11/06 09:58:30;;;;;;;9.60;8.80;;;;;;;;;;5038008;28;20387;-85
2022/11/06 10:00:57;;;;;;;9.20;8.50;;;;;;;;;;5033652;28;20482;-85
2022/11/06 10:03:29;;;;;;;9.85;9.07;;;;;;;;;;5037940;28;20465;-86
2022/11/06 10:05:55;;;;;;;8.60;7.80;;;;;;;;;;5038570;28;20378;-84
2022/11/06 10:08:21;;;;;;;8.80;8.10;;;;;;;;;;5047972;28;20413;-84
2022/11/06 10:10:53;;;;;;;9.15;8.38;;;;;;;;;;5043998;28;20370;-84
2022/11/06 10:13:33;;;;;;;10.32;9.40;;;;;;;;;;5038917;28;20371;-83
2022/11/06 10:16:05;;;;;;;8.63;7.93;;;;;;;;;;5029975;28;20501;-83
2022/11/06 10:18:40;;;;;;;7.80;7.20;;;;;;;;;;5032479;28;20387;-83
2022/11/06 10:21:10;;;;;;;6.22;5.78;;;;;;;;;;5032177;28;20383;-84
2022/11/06 10:23:47;;;;;;;6.28;5.88;;;;;;;;;;5032468;28;20429;-84
2022/11/06 10:26:15;;;;;;;6.50;6.00;;;;;;;;;;5032476;28;20917;-84
2022/11/06 10:28:47;;;;;;;6.20;5.80;;;;;;;;;;5032453;28;20384;-84
2022/11/06 10:31:13;;;;;;;6.13;5.53;;;;;;;;;;5032349;28;20379;-84
2022/11/06 10:33:57;;;;;;;6.10;5.60;;;;;;;;;;5032154;28;20395;-84
2022/11/06 10:36:30;;;;;;;6.03;5.63;;;;;;;;;;5040296;28;20383;-83
2022/11/06 10:38:58;;;;;;;7.25;6.65;;;;;;;;;;5032364;28;20379;-85
2022/11/06 10:41:26;;;;;;;6.30;5.80;;;;;;;;;;5034762;28;20511;-84
2022/11/06 10:44:04;;;;;;;6.38;5.93;;;;;;;;;;5042226;28;20409;-85
2022/11/06 10:46:35;;;;;;;6.43;6.03;;;;;;;;;;5041500;28;20396;-84
2022/11/06 10:49:02;;;;;;;6.90;6.40;;;;;;;;;;5049320;28;20389;-84
2022/11/06 10:51:50;;;;;;;7.10;6.60;;;;;;;;;;5050221;28;20377;-84
2022/11/06 10:54:25;;;;;;;6.65;6.15;;;;;;;;;;5037218;28;20442;-85
2022/11/06 10:56:54;;;;;;;5.95;5.43;;;;;;;;;;5047450;28;20387;-85
2022/11/06 10:59:20;;;;;;;10.80;9.90;;;;;;;;;;5041717;28;20478;-84
2022/11/06 11:01:46;;;;;;;7.35;6.85;;;;;;;;;;5031482;28;20541;-85
2022/11/06 11:04:12;;;;;;;7.47;6.97;;;;;;;;;;5040905;28;20912;-85
2022/11/06 11:06:39;;;;;;;7.60;7.00;;;;;;;;;;5041936;28;20390;-86
2022/11/06 11:09:26;;;;;;;8.35;7.72;;;;;;;;;;5031863;28;20383;-85
2022/11/06 11:11:52;;;;;;;7.43;6.93;;;;;;;;;;5038375;28;20383;-85
2022/11/06 11:14:23;;;;;;;7.85;7.25;;;;;;;;;;5031550;28;20379;-82
2022/11/06 11:16:49;;;;;;;8.27;7.65;;;;;;;;;;5038809;28;20387;-84
2022/11/06 11:19:23;;;;;;;6.82;6.32;;;;;;;;;;5031300;28;20375;-85
2022/11/06 11:21:54;;;;;;;7.20;6.70;;;;;;;;;;5030275;28;20379;-83
2022/11/06 11:24:20;;;;;;;7.63;7.03;;;;;;;;;;5030962;28;20436;-83
2022/11/06 11:26:47;;;;;;;8.27;7.68;;;;;;;;;;5031927;28;20375;-83
2022/11/06 11:29:25;;;;;;;8.45;7.85;;;;;;;;;;5031024;28;20387;-83
2022/11/06 11:31:59;;;;;;;9.10;8.50;;;;;;;;;;5032030;28;20402;-82
2022/11/06 11:34:26;;;;;;;8.98;8.38;;;;;;;;;;5028790;28;20425;-82
2022/11/06 11:37:13;;;;;;;8.43;7.83;;;;;;;;;;5032383;28;20390;-82
2022/11/06 11:39:43;;;;;;;7.88;7.35;;;;;;;;;;5021780;28;20388;-83
2022/11/06 11:42:22;;;;;;;7.90;7.40;;;;;;;;;;5032007;28;20406;-82
2022/11/06 11:45:05;;;;;;;7.85;7.25;;;;;;;;;;5031972;28;20383;-82
2022/11/06 11:47:32;;;;;;;8.82;8.23;;;;;;;;;;5032136;28;20379;-82
2022/11/06 11:49:58;;;;;;;8.25;7.65;;;;;;;;;;5032030;28;20464;-82
2022/11/06 11:52:24;;;;;;;7.65;7.10;;;;;;;;;;5031965;28;20877;-83
2022/11/06 11:54:52;;;;;;;7.80;7.20;;;;;;;;;;5032057;28;20422;-82
2022/11/06 11:57:23;;;;;;;7.30;6.80;;;;;;;;;;5031946;28;20383;-83
2022/11/06 11:59:54;;;;;;;9.02;8.23;;;;;;;;;;5029765;28;20466;-82
2022/11/06 12:02:26;;;;;;;8.73;8.13;;;;;;;;;;5018572;28;20414;-83
2022/11/06 12:04:55;;;;;;;9.15;8.35;;;;;;;;;;5031137;28;20399;-83
2022/11/06 12:07:27;;;;;;;9.82;9.13;;;;;;;;;;5031761;28;20437;-82
2022/11/06 12:09:53;;;;;;;9.98;9.27;;;;;;;;;;5031832;28;20386;-82
2022/11/06 12:12:21;;;;;;;9.07;8.38;;;;;;;;;;5031262;28;20385;-83
2022/11/06 12:14:47;;;;;;;9.50;8.70;;;;;;;;;;5031868;28;20458;-82
2022/11/06 12:17:16;;;;;;;9.85;9.05;;;;;;;;;;5031638;28;20387;-82
2022/11/06 12:19:44;;;;;;;9.35;8.55;;;;;;;;;;5030420;28;20787;-83
2022/11/06 12:22:19;;;;;;;9.85;8.98;;;;;;;;;;5031093;28;20409;-82
2022/11/06 12:24:51;;;;;;;9.27;8.48;;;;;;;;;;5031675;28;20394;-83
2022/11/06 12:27:19;;;;;;;9.30;8.50;;;;;;;;;;5031358;28;20379;-82
2022/11/06 12:29:49;;;;;;;9.10;8.20;;;;;;;;;;5031516;28;20379;-82
2022/11/06 12:32:25;;;;;;;8.70;7.90;;;;;;;;;;5031422;28;20469;-83
2022/11/06 12:35:12;;;;;;;8.88;8.13;;;;;;;;;;5032458;28;20383;-83
2022/11/06 12:37:49;;;;;;;9.23;8.50;;;;;;;;;;5035454;28;20442;-83
2022/11/06 12:40:41;;;;;;;8.93;8.23;;;;;;;;;;5035580;28;20713;-82
2022/11/06 12:43:26;;;;;;;8.95;8.15;;;;;;;;;;5032355;28;20406;-82
2022/11/06 12:46:01;;;;;;;9.23;8.43;;;;;;;;;;5035228;28;20383;-83
2022/11/06 12:48:33;;;;;;;10.18;9.27;;;;;;;;;;5035279;28;20387;-82
2022/11/06 12:51:05;;;;;;;9.70;8.90;;;;;;;;;;5035179;28;20383;-82
2022/11/06 12:53:44;;;;;;;9.40;8.60;;;;;;;;;;5035130;28;20380;-83
2022/11/06 12:56:14;;;;;;;9.50;8.70;;;;;;;;;;5035066;28;20380;-82
2022/11/06 12:58:40;;;;;;;9.93;9.02;;;;;;;;;;5035180;28;20422;-83
2022/11/06 13:01:19;;;;;;;10.05;9.05;;;;;;;;;;5034732;28;20395;-82
2022/11/06 13:03:54;;;;;;;11.10;10.02;;;;;;;;;;5034841;28;20883;-83
2022/11/06 13:06:20;;;;;;;10.25;9.30;;;;;;;;;;5033582;28;20791;-82
2022/11/06 13:08:49;;;;;;;9.88;9.02;;;;;;;;;;5034775;28;20391;-82
2022/11/06 13:11:36;;;;;;;10.27;9.43;;;;;;;;;;5034924;28;20391;-82
2022/11/06 13:14:02;;;;;;;9.30;8.50;;;;;;;;;;5034659;28;20376;-82
2022/11/06 13:16:33;;;;;;;9.45;8.55;;;;;;;;;;5034784;28;20383;-82
2022/11/06 13:19:04;;;;;;;8.70;8.00;;;;;;;;;;5034542;28;20430;-83
2022/11/06 13:21:37;;;;;;;8.23;7.53;;;;;;;;;;5034495;28;20383;-83
2022/11/06 13:24:16;;;;;;;8.68;7.97;;;;;;;;;;5034738;28;20474;-83
2022/11/06 13:26:49;;;;;;;8.88;8.07;;;;;;;;;;5034907;28;20383;-83
2022/11/06 13:29:16;;;;;;;9.98;9.07;;;;;;;;;;5033183;28;20783;-82
2022/11/06 13:31:58;;;;;;;9.90;9.10;;;;;;;;;;5032961;28;20764;-82
2022/11/06 13:34:26;;;;;;;9.70;8.90;;;;;;;;;;5034263;28;20383;-84
2022/11/06 13:36:52;;;;;;;9.18;8.40;;;;;;;;;;5033323;28;20423;-84
2022/11/06 13:39:24;;;;;;;8.48;7.78;;;;;;;;;;5034273;28;20426;-85
2022/11/06 13:41:51;;;;;;;8.20;7.50;;;;;;;;;;5030720;28;20399;-84
2022/11/06 13:44:19;;;;;;;8.20;7.50;;;;;;;;;;5034175;28;20419;-84
2022/11/06 13:46:58;;;;;;;9.35;8.50;;;;;;;;;;5033506;28;20386;-84
2022/11/06 13:49:27;;;;;;;9.35;8.55;;;;;;;;;;5033996;28;20418;-84
2022/11/06 13:51:56;;;;;;;9.23;8.43;;;;;;;;;;5033946;28;20387;-84
2022/11/06 13:54:34;;;;;;;8.70;8.00;;;;;;;;;;5029474;28;20387;-84
2022/11/06 13:57:09;;;;;;;9.40;8.60;;;;;;;;;;5033925;28;20386;-84
2022/11/06 13:59:38;;;;;;;9.95;9.15;;;;;;;;;;5033944;28;20414;-84
2022/11/06 14:02:23;;;;;;;9.82;9.02;;;;;;;;;;5032217;28;20908;-84
2022/11/06 14:05:07;;;;;;;9.18;8.48;;;;;;;;;;5033408;28;20375;-85
2022/11/06 14:07:34;;;;;;;8.85;8.13;;;;;;;;;;5033898;28;20406;-85
2022/11/06 14:10:00;;;;;;;8.55;7.70;;;;;;;;;;5032294;28;20894;-84
2022/11/06 14:12:27;;;;;;;9.25;8.55;;;;;;;;;;5033515;28;20383;-83
2022/11/06 14:15:12;;;;;;;8.65;7.95;;;;;;;;;;5033665;28;20390;-82
2022/11/06 14:17:38;;;;;;;8.50;7.80;;;;;;;;;;5031977;28;20391;-83
2022/11/06 14:20:06;;;;;;;8.95;8.15;;;;;;;;;;5032265;28;20395;-82
2022/11/06 14:22:35;;;;;;;8.70;7.90;;;;;;;;;;5033249;28;20452;-83
2022/11/06 14:25:21;;;;;;;8.80;8.10;;;;;;;;;;5033623;28;20744;-83
2022/11/06 14:27:49;;;;;;;8.60;7.93;;;;;;;;;;5033208;28;20382;-82
2022/11/06 14:30:31;;;;;;;8.57;7.88;;;;;;;;;;5030614;28;20375;-82
2022/11/06 14:32:57;;;;;;;8.32;7.63;;;;;;;;;;5032978;28;20379;-83
2022/11/06 14:35:30;;;;;;;8.88;8.18;;;;;;;;;;5033343;28;20394;-82
2022/11/06 14:38:16;;;;;;;8.57;7.88;;;;;;;;;;5032058;28;20402;-83
2022/11/06 14:40:42;;;;;;;9.38;8.52;;;;;;;;;;5032759;28;20476;-82
2022/11/06 14:43:23;;;;;;;9.43;8.63;;;;;;;;;;5033044;28;20411;-83
2022/11/06 14:45:55;;;;;;;9.50;8.80;;;;;;;;;;5032976;28;20548;-82
2022/11/06 14:48:34;;;;;;;9.67;8.87;;;;;;;;;;5032831;28;20386;-82
2022/11/06 14:51:02;;;;;;;9.10;8.40;;;;;;;;;;5032867;28;20379;-82
2022/11/06 14:53:33;;;;;;;8.45;7.75;;;;;;;;;;5033052;28;20752;-83
2022/11/06 14:56:00;;;;;;;10.10;9.30;;;;;;;;;;5032741;28;20868;-82
2022/11/06 14:58:29;;;;;;;9.95;9.05;;;;;;;;;;5031817;28;20387;-83
2022/11/06 15:01:12;;;;;;;9.63;8.73;;;;;;;;;;5031444;28;20411;-83
2022/11/06 15:04:10;;;;;;;9.05;8.35;;;;;;;;;;5032455;28;20497;-83
2022/11/06 15:06:44;;;;;;;9.03;8.30;;;;;;;;;;4999965;28;20387;-82
2022/11/06 15:09:22;;;;;;;9.98;9.15;;;;;;;;;;5032511;28;20737;-82
2022/11/06 15:11:50;;;;;;;10.25;9.45;;;;;;;;;;5032604;28;20379;-82
2022/11/06 15:14:16;;;;;;;11.25;10.15;;;;;;;;;;5032397;28;20386;-84
2022/11/06 15:16:43;;;;;;;9.13;8.43;;;;;;;;;;5031224;28;20395;-84
2022/11/06 15:19:17;;;;;;;10.43;9.60;;;;;;;;;;5032373;28;20553;-84
2022/11/06 15:21:45;;;;;;;10.57;9.68;;;;;;;;;;5031023;28;20756;-84
2022/11/06 15:24:21;;;;;;;10.85;9.95;;;;;;;;;;5032412;28;20386;-84
2022/11/06 15:26:51;;;;;;;10.77;9.90;;;;;;;;;;5032366;28;20386;-84
2022/11/06 15:29:28;;;;;;;11.13;10.23;;;;;;;;;;5032249;28;20428;-84
2022/11/06 15:32:01;;;;;;;10.95;10.05;;;;;;;;;;5032402;28;20390;-84
2022/11/06 15:34:30;;;;;;;11.32;10.32;;;;;;;;;;5032084;28;20382;-85
2022/11/06 15:37:11;;;;;;;11.75;10.65;;;;;;;;;;5032244;28;20386;-84
2022/11/06 15:39:50;;;;;;;11.02;10.13;;;;;;;;;;5031835;28;20399;-84
2022/11/06 15:42:24;;;;;;;11.63;10.73;;;;;;;;;;5031997;28;20418;-82
2022/11/06 15:44:50;;;;;;;11.57;10.57;;;;;;;;;;5028952;28;20379;-82
2022/11/06 15:47:20;;;;;;;12.23;11.23;;;;;;;;;;5032182;28;20391;-82
2022/11/06 15:49:46;;;;;;;11.45;10.55;;;;;;;;;;5032289;28;20891;-82
2022/11/06 15:52:18;;;;;;;11.35;10.43;;;;;;;;;;5032041;28;20391;-82
2022/11/06 15:54:45;;;;;;;11.48;10.57;;;;;;;;;;5031980;28;20391;-83
2022/11/06 15:57:14;;;;;;;11.00;10.10;;;;;;;;;;5031484;28;20739;-82
2022/11/06 15:59:40;;;;;;;11.53;10.53;;;;;;;;;;5029114;28;20394;-83
2022/11/06 16:02:18;;;;;;;10.57;9.68;;;;;;;;;;5026974;28;20414;-83
2022/11/06 16:04:44;;;;;;;11.63;10.63;;;;;;;;;;5026222;28;20387;-85
2022/11/06 16:07:10;;;;;;;12.03;11.03;;;;;;;;;;5029021;28;20864;-85
2022/11/06 16:09:36;;;;;;;11.80;10.80;;;;;;;;;;5030781;28;20383;-85
2022/11/06 16:12:03;;;;;;;11.27;10.37;;;;;;;;;;5034804;28;20399;-87
2022/11/06 16:14:29;;;;;;;9.90;9.10;;;;;;;;;;5033788;28;20375;-86
2022/11/06 16:16:56;;;;;;;9.97;9.17;;;;;;;;;;5035846;28;20390;-85
2022/11/06 16:19:25;;;;;;;9.25;8.52;;;;;;;;;;5035527;28;20717;-85
2022/11/06 16:22:02;;;;;;;9.85;9.05;;;;;;;;;;5034909;28;20425;-84
2022/11/06 16:24:30;;;;;;;9.45;8.70;;;;;;;;;;5042389;28;20874;-85
2022/11/06 16:26:56;;;;;;;10.63;9.82;;;;;;;;;;5050870;28;20400;-85
2022/11/06 16:29:24;;;;;;;10.32;9.50;;;;;;;;;;5048512;28;20374;-86
2022/11/06 16:32:01;;;;;;;10.82;9.82;;;;;;;;;;5040687;28;20395;-85
2022/11/06 16:34:30;;;;;;;11.90;10.90;;;;;;;;;;5056392;28;20432;-85
2022/11/06 16:37:00;;;;;;;10.57;9.73;;;;;;;;;;5040827;28;20884;-85
2022/11/06 16:39:26;;;;;;;11.43;10.52;;;;;;;;;;5015508;28;20466;-85
2022/11/06 16:42:16;;;;;;;11.32;10.43;;;;;;;;;;5046934;28;20483;-84
2022/11/06 16:44:42;;;;;;;11.63;10.65;;;;;;;;;;5046799;28;20928;-85
2022/11/06 16:47:12;;;;;;;12.60;11.55;;;;;;;;;;5039743;28;20507;-84
2022/11/06 16:49:39;;;;;;;11.13;10.23;;;;;;;;;;5040273;28;20414;-84
2022/11/06 16:52:24;;;;;;;11.23;10.32;;;;;;;;;;5047104;28;20430;-84
2022/11/06 16:55:13;;;;;;;13.07;11.93;;;;;;;;;;5037707;28;20467;-84
2022/11/06 16:57:47;;;;;;;17.23;15.38;;;;;;;;;;5034892;28;20470;-84
2022/11/06 17:00:19;;;;;;;10.80;9.73;;;;;;;;;;5034484;28;20776;-83
2022/11/06 17:02:46;;;;;;;11.20;10.27;;;;;;;;;;5040180;28;20853;-83
2022/11/06 17:05:14;;;;;;;9.55;8.68;;;;;;;;;;5038085;28;20418;-83
2022/11/06 17:07:41;;;;;;;9.38;8.57;;;;;;;;;;5036175;28;20447;-84
2022/11/06 17:10:25;;;;;;;9.88;9.07;;;;;;;;;;5034659;28;20408;-85
2022/11/06 17:12:52;;;;;;;9.88;9.07;;;;;;;;;;5034305;28;20382;-85
2022/11/06 17:15:18;;;;;;;10.30;9.43;;;;;;;;;;5034603;28;20864;-85
2022/11/06 17:17:44;;;;;;;10.13;9.32;;;;;;;;;;5034612;28;20391;-85
2022/11/06 17:20:16;;;;;;;12.13;11.13;;;;;;;;;;5033607;28;20426;-85
2022/11/06 17:22:42;;;;;;;12.45;11.45;;;;;;;;;;5037483;28;20431;-86
2022/11/06 17:25:08;;;;;;;14.10;12.90;;;;;;;;;;5043807;28;20391;-86
2022/11/06 17:27:34;;;;;;;14.02;12.73;;;;;;;;;;5047500;28;20412;-85
2022/11/06 17:30:00;;;;;;;13.32;12.15;;;;;;;;;;5042406;28;20407;-85
2022/11/06 17:32:26;;;;;;;12.77;11.70;;;;;;;;;;5043996;28;20869;-86
2022/11/06 17:34:52;;;;;;;13.18;12.07;;;;;;;;;;5035263;28;20402;-85
2022/11/06 17:37:20;;;;;;;13.02;12.02;;;;;;;;;;5041818;28;20428;-85
2022/11/06 17:39:47;;;;;;;14.55;13.25;;;;;;;;;;5033703;28;20441;-84
2022/11/06 17:42:13;;;;;;;14.85;13.55;;;;;;;;;;5042115;28;20422;-84
2022/11/06 17:44:39;;;;;;;14.85;13.55;;;;;;;;;;5034163;28;20533;-83
2022/11/06 17:47:05;;;;;;;14.48;13.18;;;;;;;;;;5034310;28;20911;-83
2022/11/06 17:49:31;;;;;;;13.50;12.40;;;;;;;;;;5034155;28;20378;-85
2022/11/06 17:51:58;;;;;;;13.35;12.10;;;;;;;;;;5033613;28;20409;-85
2022/11/06 17:54:32;;;;;;;13.20;12.10;;;;;;;;;;5034010;28;20394;-84
2022/11/06 17:56:59;;;;;;;12.85;11.82;;;;;;;;;;5033685;28;20367;-83
2022/11/06 17:59:25;;;;;;;12.85;11.75;;;;;;;;;;5033996;28;20406;-85
2022/11/06 18:01:51;;;;;;;13.23;11.93;;;;;;;;;;5033519;28;20943;-84
2022/11/06 18:04:18;;;;;;;13.15;12.05;;;;;;;;;;5033552;28;20736;-85
2022/11/06 18:06:45;;;;;;;13.20;12.10;;;;;;;;;;5033321;28;20416;-84
2022/11/06 18:09:11;;;;;;;13.07;11.98;;;;;;;;;;5033698;28;20397;-85
2022/11/06 18:11:37;;;;;;;13.48;12.27;;;;;;;;;;5033372;28;20462;-84
2022/11/06 18:14:03;;;;;;;12.77;11.57;;;;;;;;;;5028761;28;20395;-86
2022/11/06 18:16:31;;;;;;;11.85;10.85;;;;;;;;;;5033651;28;20434;-86
2022/11/06 18:18:57;;;;;;;12.00;11.00;;;;;;;;;;5033482;28;20384;-85
2022/11/06 18:21:24;;;;;;;12.63;11.45;;;;;;;;;;5032151;28;20389;-85
2022/11/06 18:23:50;;;;;;;11.02;10.13;;;;;;;;;;5033609;28;20501;-86
2022/11/06 18:26:17;;;;;;;9.85;9.05;;;;;;;;;;5047508;28;20876;-85
2022/11/06 18:28:43;;;;;;;9.43;8.63;;;;;;;;;;5032082;28;20857;-86
2022/11/06 18:31:09;;;;;;;9.05;8.25;;;;;;;;;;5033007;28;20387;-83
2022/11/06 18:33:35;;;;;;;9.07;8.38;;;;;;;;;;5039915;28;20405;-85
2022/11/06 18:36:01;;;;;;;9.52;8.77;;;;;;;;;;5049835;28;20413;-84
2022/11/06 18:38:27;;;;;;;13.53;12.13;;;;;;;;;;5033744;28;20387;-87
2022/11/06 18:40:53;;;;;;;16.35;13.65;;;;;;;;;;5042797;28;20432;-87
2022/11/06 18:43:19;;;;;;;9.73;8.93;;;;;;;;;;5046883;28;20815;-88
2022/11/06 18:45:45;;;;;;;10.68;9.77;;;;;;;;;;5032025;28;20886;-87
2022/11/06 18:48:11;;;;;;;9.68;8.95;;;;;;;;;;5040346;28;20400;-85
2022/11/06 18:50:37;;;;;;;9.73;8.93;;;;;;;;;;5036632;28;20392;-85
2022/11/06 18:53:04;;;;;;;9.75;9.02;;;;;;;;;;5021271;28;20780;-85
2022/11/06 18:55:30;;;;;;;10.57;9.77;;;;;;;;;;5037622;28;20421;-86
2022/11/06 18:57:56;;;;;;;10.40;9.60;;;;;;;;;;5049513;28;20898;-86
2022/11/06 19:00:22;;;;;;;10.37;9.57;;;;;;;;;;5049716;28;20468;-87
2022/11/06 19:02:48;;;;;;;10.68;9.88;;;;;;;;;;5047124;28;20500;-85
2022/11/06 19:05:14;;;;;;;10.85;9.98;;;;;;;;;;5045573;28;20468;-85
2022/11/06 19:07:40;;;;;;;9.38;8.68;;;;;;;;;;5046546;28;20386;-86
2022/11/06 19:10:07;;;;;;;8.88;8.23;;;;;;;;;;5047500;28;20385;-86
2022/11/06 19:12:33;;;;;;;8.88;8.20;;;;;;;;;;5049751;28;20781;-85
2022/11/06 19:14:59;;;;;;;9.00;8.30;;;;;;;;;;5050755;28;20400;-86
2022/11/06 19:17:25;;;;;;;9.37;8.57;;;;;;;;;;5049743;28;20858;-85
2022/11/06 19:19:51;;;;;;;10.70;9.80;;;;;;;;;;5046281;28;20385;-84
2022/11/06 19:22:17;;;;;;;10.07;9.27;;;;;;;;;;5032552;28;20417;-84
2022/11/06 19:24:43;;;;;;;11.07;10.27;;;;;;;;;;5028492;28;20466;-85
2022/11/06 19:27:09;;;;;;;11.80;10.80;;;;;;;;;;5049168;28;20387;-86
2022/11/06 19:29:38;;;;;;;11.65;10.75;;;;;;;;;;5048093;28;20738;-85
2022/11/06 19:32:04;;;;;;;11.68;10.77;;;;;;;;;;5032052;28;20381;-84
2022/11/06 19:34:30;;;;;;;10.43;9.63;;;;;;;;;;5049430;28;20381;-85
2022/11/06 19:36:57;;;;;;;11.60;10.70;;;;;;;;;;5049840;28;20862;-85
2022/11/06 19:39:24;;;;;;;10.55;9.75;;;;;;;;;;5047693;28;20483;-84
2022/11/06 19:41:51;;;;;;;10.20;9.20;;;;;;;;;;5045868;28;20742;-87
2022/11/06 19:44:17;;;;;;;10.43;9.63;;;;;;;;;;5042898;28;20888;-87
2022/11/06 19:46:43;;;;;;;9.77;9.03;;;;;;;;;;5031936;28;20465;-86
2022/11/06 19:49:09;;;;;;;10.68;9.88;;;;;;;;;;5025920;28;21271;-88
2022/11/06 19:51:41;;;;;;;10.98;10.13;;;;;;;;;;5024341;28;20884;-88
2022/11/06 19:54:09;;;;;;;11.40;10.50;;;;;;;;;;5031936;28;20389;-86
2022/11/06 19:56:35;;;;;;;11.05;10.15;;;;;;;;;;5038389;28;20383;-88
2022/11/06 19:59:01;;;;;;;10.88;9.98;;;;;;;;;;5030980;28;20476;-87
2022/11/06 20:01:27;;;;;;;10.35;9.60;;;;;;;;;;5029265;28;20947;-87
2022/11/06 20:03:56;;;;;;;10.23;9.53;;;;;;;;;;5031128;28;20514;-87
2022/11/06 20:06:22;;;;;;;9.80;9.10;;;;;;;;;;5014270;28;20463;-86
2022/11/06 20:08:49;;;;;;;10.48;9.68;;;;;;;;;;5029785;28;20403;-87
2022/11/06 20:11:15;;;;;;;9.93;9.13;;;;;;;;;;5034679;28;20875;-86
2022/11/06 20:13:42;;;;;;;11.00;10.20;;;;;;;;;;5026165;28;20490;-86
2022/11/06 20:16:09;;;;;;;11.35;10.45;;;;;;;;;;5023303;28;20383;-87
2022/11/06 20:18:36;;;;;;;11.88;10.90;;;;;;;;;;5031932;28;20439;-86
2022/11/06 20:21:03;;;;;;;13.35;12.30;;;;;;;;;;5035015;28;20398;-86
2022/11/06 20:23:29;;;;;;;13.52;12.35;;;;;;;;;;5029259;28;20445;-85
2022/11/06 20:25:56;;;;;;;12.40;11.32;;;;;;;;;;5033333;28;20868;-85
2022/11/06 20:28:22;;;;;;;12.05;11.15;;;;;;;;;;5027289;28;20918;-85
2022/11/06 20:30:48;;;;;;;11.37;10.47;;;;;;;;;;5029294;28;20415;-85
2022/11/06 20:33:14;;;;;;;10.73;9.80;;;;;;;;;;5029837;28;20399;-86
2022/11/06 20:35:40;;;;;;;10.18;9.38;;;;;;;;;;5031212;28;20414;-86
2022/11/06 20:38:06;;;;;;;10.02;9.23;;;;;;;;;;5031594;28;20803;-86
2022/11/06 20:40:32;;;;;;;11.02;10.18;;;;;;;;;;5031229;28;20466;-86
2022/11/06 20:42:58;;;;;;;10.90;10.00;;;;;;;;;;5041596;28;20909;-86